sensor_id;sensor_type;location;lat;lon;timestamp;P1;durP1;ratioP1;P2;durP2;ratioP2
32824;SDS011;51060;42.640;24.356;2023-03-13T00:00:58;23.50;;;14.17;;
32824;SDS011;51060;42.640;24.356;2023-03-13T00:03:24;21.00;;;13.47;;
32824;SDS011;51060;42.640;24.356;2023-03-13T00:05:54;23.77;;;14.57;;
32824;SDS011;51060;42.640;24.356;2023-03-13T00:08:20;23.47;;;15.73;;
32824;SDS011;51060;42.640;24.356;2023-03-13T00:10:46;24.03;;;15.67;;
32824;SDS011;51060;42.640;24.356;2023-03-13T00:13:11;20.20;;;14.23;;
32824;SDS011;51060;42.640;24.356;2023-03-13T00:15:37;17.80;;;10.33;;
32824;SDS011;51060;42.640;24.356;2023-03-13T00:18:03;16.20;;;10.20;;
32824;SDS011;51060;42.640;24.356;2023-03-13T00:20:28;14.03;;;9.30;;
32824;SDS011;51060;42.640;24.356;2023-03-13T00:22:54;15.10;;;9.93;;
32824;SDS011;51060;42.640;24.356;2023-03-13T00:25:19;14.47;;;10.27;;
32824;SDS011;51060;42.640;24.356;2023-03-13T00:27:45;14.70;;;9.73;;
32824;SDS011;51060;42.640;24.356;2023-03-13T00:30:10;9.50;;;6.73;;
32824;SDS011;51060;42.640;24.356;2023-03-13T00:32:40;11.23;;;7.50;;
32824;SDS011;51060;42.640;24.356;2023-03-13T00:35:08;12.63;;;8.17;;
32824;SDS011;51060;42.640;24.356;2023-03-13T00:37:33;14.73;;;9.50;;
32824;SDS011;51060;42.640;24.356;2023-03-13T00:39:59;15.27;;;10.67;;
32824;SDS011;51060;42.640;24.356;2023-03-13T00:42:24;18.63;;;11.00;;
32824;SDS011;51060;42.640;24.356;2023-03-13T00:44:50;31.07;;;17.77;;
32824;SDS011;51060;42.640;24.356;2023-03-13T00:47:15;27.63;;;14.97;;
32824;SDS011;51060;42.640;24.356;2023-03-13T00:49:41;22.40;;;12.33;;
32824;SDS011;51060;42.640;24.356;2023-03-13T00:52:06;26.23;;;14.77;;
32824;SDS011;51060;42.640;24.356;2023-03-13T00:54:32;26.60;;;16.00;;
32824;SDS011;51060;42.640;24.356;2023-03-13T00:56:58;29.70;;;17.30;;
32824;SDS011;51060;42.640;24.356;2023-03-13T00:59:23;28.80;;;16.97;;
32824;SDS011;51060;42.640;24.356;2023-03-13T01:01:49;17.60;;;11.43;;
32824;SDS011;51060;42.640;24.356;2023-03-13T01:04:14;12.33;;;8.30;;
32824;SDS011;51060;42.640;24.356;2023-03-13T01:06:40;12.77;;;8.30;;
32824;SDS011;51060;42.640;24.356;2023-03-13T01:09:07;11.57;;;7.47;;
32824;SDS011;51060;42.640;24.356;2023-03-13T01:11:36;33.50;;;18.30;;
32824;SDS011;51060;42.640;24.356;2023-03-13T01:14:04;59.97;;;30.37;;
32824;SDS011;51060;42.640;24.356;2023-03-13T01:16:33;33.67;;;18.87;;
32824;SDS011;51060;42.640;24.356;2023-03-13T01:19:00;28.97;;;16.83;;
32824;SDS011;51060;42.640;24.356;2023-03-13T01:21:28;18.83;;;11.33;;
32824;SDS011;51060;42.640;24.356;2023-03-13T01:23:54;17.83;;;11.70;;
32824;SDS011;51060;42.640;24.356;2023-03-13T01:26:21;20.53;;;11.73;;
32824;SDS011;51060;42.640;24.356;2023-03-13T01:28:47;19.00;;;12.20;;
32824;SDS011;51060;42.640;24.356;2023-03-13T01:31:17;19.20;;;11.77;;
32824;SDS011;51060;42.640;24.356;2023-03-13T01:33:49;24.60;;;14.57;;
32824;SDS011;51060;42.640;24.356;2023-03-13T01:36:15;26.20;;;15.70;;
32824;SDS011;51060;42.640;24.356;2023-03-13T01:38:42;27.80;;;17.03;;
32824;SDS011;51060;42.640;24.356;2023-03-13T01:41:09;17.30;;;10.53;;
32824;SDS011;51060;42.640;24.356;2023-03-13T01:43:36;13.17;;;10.17;;
32824;SDS011;51060;42.640;24.356;2023-03-13T01:48:53;5.43;;;4.73;;
32824;SDS011;51060;42.640;24.356;2023-03-13T01:51:55;8.13;;;5.97;;
32824;SDS011;51060;42.640;24.356;2023-03-13T01:54:25;8.90;;;5.70;;
32824;SDS011;51060;42.640;24.356;2023-03-13T01:57:20;6.33;;;5.00;;
32824;SDS011;51060;42.640;24.356;2023-03-13T02:02:36;18.73;;;11.97;;
32824;SDS011;51060;42.640;24.356;2023-03-13T02:05:03;18.60;;;11.93;;
32824;SDS011;51060;42.640;24.356;2023-03-13T02:07:34;14.60;;;9.10;;
32824;SDS011;51060;42.640;24.356;2023-03-13T02:10:02;9.67;;;6.67;;
32824;SDS011;51060;42.640;24.356;2023-03-13T02:14:59;15.83;;;10.60;;
32824;SDS011;51060;42.640;24.356;2023-03-13T02:17:29;28.63;;;16.03;;
32824;SDS011;51060;42.640;24.356;2023-03-13T02:19:55;23.33;;;14.03;;
32824;SDS011;51060;42.640;24.356;2023-03-13T02:27:33;25.40;;;15.63;;
32824;SDS011;51060;42.640;24.356;2023-03-13T02:29:58;24.30;;;15.97;;
32824;SDS011;51060;42.640;24.356;2023-03-13T02:32:25;25.43;;;16.20;;
32824;SDS011;51060;42.640;24.356;2023-03-13T02:34:51;25.87;;;16.63;;
32824;SDS011;51060;42.640;24.356;2023-03-13T02:37:20;29.30;;;18.10;;
32824;SDS011;51060;42.640;24.356;2023-03-13T02:39:47;32.20;;;18.97;;
32824;SDS011;51060;42.640;24.356;2023-03-13T02:42:14;28.53;;;17.27;;
32824;SDS011;51060;42.640;24.356;2023-03-13T02:44:42;25.17;;;16.40;;
32824;SDS011;51060;42.640;24.356;2023-03-13T02:47:08;26.70;;;15.63;;
32824;SDS011;51060;42.640;24.356;2023-03-13T02:49:34;24.30;;;15.57;;
32824;SDS011;51060;42.640;24.356;2023-03-13T02:52:08;24.10;;;14.17;;
32824;SDS011;51060;42.640;24.356;2023-03-13T02:54:57;12.63;;;8.70;;
32824;SDS011;51060;42.640;24.356;2023-03-13T02:57:25;13.10;;;9.47;;
32824;SDS011;51060;42.640;24.356;2023-03-13T02:59:51;18.37;;;12.57;;
32824;SDS011;51060;42.640;24.356;2023-03-13T03:02:17;15.10;;;10.50;;
32824;SDS011;51060;42.640;24.356;2023-03-13T03:04:42;14.47;;;9.37;;
32824;SDS011;51060;42.640;24.356;2023-03-13T03:07:08;20.40;;;12.73;;
32824;SDS011;51060;42.640;24.356;2023-03-13T03:09:33;22.03;;;13.13;;
32824;SDS011;51060;42.640;24.356;2023-03-13T03:11:59;24.23;;;15.03;;
32824;SDS011;51060;42.640;24.356;2023-03-13T03:14:24;24.53;;;15.73;;
32824;SDS011;51060;42.640;24.356;2023-03-13T03:16:50;22.07;;;15.13;;
32824;SDS011;51060;42.640;24.356;2023-03-13T03:19:16;17.00;;;11.10;;
32824;SDS011;51060;42.640;24.356;2023-03-13T03:21:41;7.00;;;5.43;;
32824;SDS011;51060;42.640;24.356;2023-03-13T03:24:07;11.57;;;7.60;;
32824;SDS011;51060;42.640;24.356;2023-03-13T03:26:33;11.50;;;7.70;;
32824;SDS011;51060;42.640;24.356;2023-03-13T03:28:58;16.23;;;10.70;;
32824;SDS011;51060;42.640;24.356;2023-03-13T03:31:24;11.23;;;7.70;;
32824;SDS011;51060;42.640;24.356;2023-03-13T03:33:50;10.30;;;6.90;;
32824;SDS011;51060;42.640;24.356;2023-03-13T03:36:17;27.03;;;13.57;;
32824;SDS011;51060;42.640;24.356;2023-03-13T03:38:44;90.43;;;38.77;;
32824;SDS011;51060;42.640;24.356;2023-03-13T03:41:11;89.63;;;37.17;;
32824;SDS011;51060;42.640;24.356;2023-03-13T03:43:38;72.37;;;31.00;;
32824;SDS011;51060;42.640;24.356;2023-03-13T03:46:04;38.23;;;21.53;;
32824;SDS011;51060;42.640;24.356;2023-03-13T03:48:29;18.73;;;11.77;;
32824;SDS011;51060;42.640;24.356;2023-03-13T03:50:55;21.40;;;12.37;;
32824;SDS011;51060;42.640;24.356;2023-03-13T03:53:21;23.23;;;14.83;;
32824;SDS011;51060;42.640;24.356;2023-03-13T03:55:46;21.03;;;14.53;;
32824;SDS011;51060;42.640;24.356;2023-03-13T03:58:12;24.13;;;15.50;;
32824;SDS011;51060;42.640;24.356;2023-03-13T04:00:38;29.80;;;17.27;;
32824;SDS011;51060;42.640;24.356;2023-03-13T04:03:03;30.93;;;17.87;;
32824;SDS011;51060;42.640;24.356;2023-03-13T04:05:29;35.23;;;19.03;;
32824;SDS011;51060;42.640;24.356;2023-03-13T04:07:54;38.40;;;21.40;;
32824;SDS011;51060;42.640;24.356;2023-03-13T04:10:20;86.93;;;38.53;;
32824;SDS011;51060;42.640;24.356;2023-03-13T04:12:45;207.57;;;77.73;;
32824;SDS011;51060;42.640;24.356;2023-03-13T04:15:11;111.00;;;48.57;;
32824;SDS011;51060;42.640;24.356;2023-03-13T04:17:37;110.47;;;47.13;;
32824;SDS011;51060;42.640;24.356;2023-03-13T04:20:03;69.10;;;34.00;;
32824;SDS011;51060;42.640;24.356;2023-03-13T04:22:29;49.10;;;28.57;;
32824;SDS011;51060;42.640;24.356;2023-03-13T04:24:55;46.70;;;26.33;;
32824;SDS011;51060;42.640;24.356;2023-03-13T04:27:20;30.97;;;19.13;;
32824;SDS011;51060;42.640;24.356;2023-03-13T04:29:46;40.47;;;22.97;;
32824;SDS011;51060;42.640;24.356;2023-03-13T04:32:12;46.87;;;25.90;;
32824;SDS011;51060;42.640;24.356;2023-03-13T04:34:37;45.00;;;24.93;;
32824;SDS011;51060;42.640;24.356;2023-03-13T04:37:03;31.97;;;19.27;;
32824;SDS011;51060;42.640;24.356;2023-03-13T04:39:28;229.47;;;85.03;;
32824;SDS011;51060;42.640;24.356;2023-03-13T04:41:54;91.47;;;44.33;;
32824;SDS011;51060;42.640;24.356;2023-03-13T04:44:20;73.10;;;40.50;;
32824;SDS011;51060;42.640;24.356;2023-03-13T04:46:47;64.47;;;36.40;;
32824;SDS011;51060;42.640;24.356;2023-03-13T04:49:13;79.27;;;45.70;;
32824;SDS011;51060;42.640;24.356;2023-03-13T04:51:42;69.33;;;39.87;;
32824;SDS011;51060;42.640;24.356;2023-03-13T04:54:09;75.53;;;41.87;;
32824;SDS011;51060;42.640;24.356;2023-03-13T04:56:35;62.73;;;36.57;;
32824;SDS011;51060;42.640;24.356;2023-03-13T04:59:00;60.20;;;35.00;;
32824;SDS011;51060;42.640;24.356;2023-03-13T05:01:26;74.23;;;39.07;;
32824;SDS011;51060;42.640;24.356;2023-03-13T05:03:52;78.67;;;44.23;;
32824;SDS011;51060;42.640;24.356;2023-03-13T05:06:17;77.10;;;41.77;;
32824;SDS011;51060;42.640;24.356;2023-03-13T05:08:43;77.33;;;42.00;;
32824;SDS011;51060;42.640;24.356;2023-03-13T05:11:08;87.23;;;47.33;;
32824;SDS011;51060;42.640;24.356;2023-03-13T05:13:34;89.33;;;49.83;;
32824;SDS011;51060;42.640;24.356;2023-03-13T05:16:00;79.53;;;45.83;;
32824;SDS011;51060;42.640;24.356;2023-03-13T05:18:25;83.40;;;44.43;;
32824;SDS011;51060;42.640;24.356;2023-03-13T05:20:51;82.77;;;46.43;;
32824;SDS011;51060;42.640;24.356;2023-03-13T05:23:16;90.43;;;49.70;;
32824;SDS011;51060;42.640;24.356;2023-03-13T05:25:42;99.33;;;51.77;;
32824;SDS011;51060;42.640;24.356;2023-03-13T05:28:08;108.73;;;54.27;;
32824;SDS011;51060;42.640;24.356;2023-03-13T05:30:33;192.27;;;91.07;;
32824;SDS011;51060;42.640;24.356;2023-03-13T05:32:59;175.30;;;86.93;;
32824;SDS011;51060;42.640;24.356;2023-03-13T05:35:24;172.37;;;90.83;;
32824;SDS011;51060;42.640;24.356;2023-03-13T05:37:50;173.80;;;85.77;;
32824;SDS011;51060;42.640;24.356;2023-03-13T05:40:15;210.57;;;109.67;;
32824;SDS011;51060;42.640;24.356;2023-03-13T05:42:41;208.40;;;106.97;;
32824;SDS011;51060;42.640;24.356;2023-03-13T05:45:07;202.87;;;104.97;;
32824;SDS011;51060;42.640;24.356;2023-03-13T05:47:34;193.00;;;96.07;;
32824;SDS011;51060;42.640;24.356;2023-03-13T05:50:00;89.67;;;49.50;;
32824;SDS011;51060;42.640;24.356;2023-03-13T05:52:26;82.30;;;47.73;;
32824;SDS011;51060;42.640;24.356;2023-03-13T05:54:52;73.20;;;43.73;;
32824;SDS011;51060;42.640;24.356;2023-03-13T05:57:17;83.33;;;48.77;;
32824;SDS011;51060;42.640;24.356;2023-03-13T05:59:43;77.57;;;45.00;;
32824;SDS011;51060;42.640;24.356;2023-03-13T06:02:08;57.10;;;36.67;;
32824;SDS011;51060;42.640;24.356;2023-03-13T06:04:34;57.77;;;37.30;;
32824;SDS011;51060;42.640;24.356;2023-03-13T06:07:00;49.07;;;30.73;;
32824;SDS011;51060;42.640;24.356;2023-03-13T06:09:25;51.27;;;32.37;;
32824;SDS011;51060;42.640;24.356;2023-03-13T06:11:51;62.07;;;38.30;;
32824;SDS011;51060;42.640;24.356;2023-03-13T06:14:17;58.17;;;36.30;;
32824;SDS011;51060;42.640;24.356;2023-03-13T06:16:42;59.07;;;39.03;;
32824;SDS011;51060;42.640;24.356;2023-03-13T06:19:08;70.10;;;39.43;;
32824;SDS011;51060;42.640;24.356;2023-03-13T06:21:34;64.47;;;38.00;;
32824;SDS011;51060;42.640;24.356;2023-03-13T06:23:59;57.33;;;31.77;;
32824;SDS011;51060;42.640;24.356;2023-03-13T06:26:25;57.03;;;34.97;;
32824;SDS011;51060;42.640;24.356;2023-03-13T06:28:50;55.40;;;34.90;;
32824;SDS011;51060;42.640;24.356;2023-03-13T06:31:16;57.40;;;35.13;;
32824;SDS011;51060;42.640;24.356;2023-03-13T06:33:42;48.67;;;32.63;;
32824;SDS011;51060;42.640;24.356;2023-03-13T06:36:08;54.40;;;32.67;;
32824;SDS011;51060;42.640;24.356;2023-03-13T06:38:33;54.70;;;34.03;;
32824;SDS011;51060;42.640;24.356;2023-03-13T06:40:59;51.57;;;35.63;;
32824;SDS011;51060;42.640;24.356;2023-03-13T06:43:25;47.53;;;32.33;;
32824;SDS011;51060;42.640;24.356;2023-03-13T06:45:51;50.70;;;32.50;;
32824;SDS011;51060;42.640;24.356;2023-03-13T06:48:16;48.50;;;33.17;;
32824;SDS011;51060;42.640;24.356;2023-03-13T06:50:42;47.60;;;31.53;;
32824;SDS011;51060;42.640;24.356;2023-03-13T06:53:18;53.37;;;34.60;;
32824;SDS011;51060;42.640;24.356;2023-03-13T06:55:44;50.97;;;35.83;;
32824;SDS011;51060;42.640;24.356;2023-03-13T06:58:10;68.50;;;43.03;;
32824;SDS011;51060;42.640;24.356;2023-03-13T07:00:35;63.20;;;38.73;;
32824;SDS011;51060;42.640;24.356;2023-03-13T07:03:03;63.70;;;39.53;;
32824;SDS011;51060;42.640;24.356;2023-03-13T07:05:29;69.63;;;39.43;;
32824;SDS011;51060;42.640;24.356;2023-03-13T07:07:54;43.57;;;27.97;;
32824;SDS011;51060;42.640;24.356;2023-03-13T07:10:20;42.53;;;27.07;;
32824;SDS011;51060;42.640;24.356;2023-03-13T07:12:45;26.87;;;19.70;;
32824;SDS011;51060;42.640;24.356;2023-03-13T07:15:11;39.47;;;23.30;;
32824;SDS011;51060;42.640;24.356;2023-03-13T07:17:36;32.50;;;20.90;;
32824;SDS011;51060;42.640;24.356;2023-03-13T07:20:03;33.10;;;20.53;;
32824;SDS011;51060;42.640;24.356;2023-03-13T07:22:29;34.00;;;18.63;;
32824;SDS011;51060;42.640;24.356;2023-03-13T07:24:55;26.23;;;19.70;;
32824;SDS011;51060;42.640;24.356;2023-03-13T07:27:20;30.17;;;21.37;;
32824;SDS011;51060;42.640;24.356;2023-03-13T07:29:47;30.87;;;21.83;;
32824;SDS011;51060;42.640;24.356;2023-03-13T07:32:13;25.13;;;16.23;;
32824;SDS011;51060;42.640;24.356;2023-03-13T07:34:38;16.53;;;12.07;;
32824;SDS011;51060;42.640;24.356;2023-03-13T07:37:04;12.97;;;8.80;;
32824;SDS011;51060;42.640;24.356;2023-03-13T07:39:29;11.60;;;9.27;;
32824;SDS011;51060;42.640;24.356;2023-03-13T07:41:55;11.60;;;8.40;;
32824;SDS011;51060;42.640;24.356;2023-03-13T07:44:20;9.67;;;7.03;;
32824;SDS011;51060;42.640;24.356;2023-03-13T07:46:46;12.27;;;8.87;;
32824;SDS011;51060;42.640;24.356;2023-03-13T07:49:12;6.13;;;5.40;;
32824;SDS011;51060;42.640;24.356;2023-03-13T07:51:38;5.67;;;4.83;;
32824;SDS011;51060;42.640;24.356;2023-03-13T07:54:04;3.50;;;3.20;;
32824;SDS011;51060;42.640;24.356;2023-03-13T07:56:29;4.27;;;3.70;;
32824;SDS011;51060;42.640;24.356;2023-03-13T07:58:55;7.27;;;5.40;;
32824;SDS011;51060;42.640;24.356;2023-03-13T08:01:22;6.70;;;5.33;;
32824;SDS011;51060;42.640;24.356;2023-03-13T08:03:49;10.30;;;8.27;;
32824;SDS011;51060;42.640;24.356;2023-03-13T08:06:18;4.73;;;4.33;;
32824;SDS011;51060;42.640;24.356;2023-03-13T08:08:45;6.17;;;5.53;;
32824;SDS011;51060;42.640;24.356;2023-03-13T08:11:14;6.17;;;5.00;;
32824;SDS011;51060;42.640;24.356;2023-03-13T08:13:44;4.07;;;3.43;;
32824;SDS011;51060;42.640;24.356;2023-03-13T08:16:11;3.93;;;3.63;;
32824;SDS011;51060;42.640;24.356;2023-03-13T08:18:39;5.53;;;5.03;;
32824;SDS011;51060;42.640;24.356;2023-03-13T08:21:10;3.70;;;3.40;;
32824;SDS011;51060;42.640;24.356;2023-03-13T08:23:40;4.27;;;3.87;;
32824;SDS011;51060;42.640;24.356;2023-03-13T08:26:07;4.87;;;3.93;;
32824;SDS011;51060;42.640;24.356;2023-03-13T08:28:34;5.40;;;4.63;;
32824;SDS011;51060;42.640;24.356;2023-03-13T08:31:10;4.40;;;4.00;;
32824;SDS011;51060;42.640;24.356;2023-03-13T08:33:38;3.10;;;2.90;;
32824;SDS011;51060;42.640;24.356;2023-03-13T08:36:21;4.60;;;4.10;;
32824;SDS011;51060;42.640;24.356;2023-03-13T08:38:49;4.10;;;3.70;;
32824;SDS011;51060;42.640;24.356;2023-03-13T08:41:17;3.90;;;3.50;;
32824;SDS011;51060;42.640;24.356;2023-03-13T08:43:45;4.00;;;3.60;;
32824;SDS011;51060;42.640;24.356;2023-03-13T08:46:11;3.87;;;3.37;;
32824;SDS011;51060;42.640;24.356;2023-03-13T08:48:37;3.97;;;3.57;;
32824;SDS011;51060;42.640;24.356;2023-03-13T08:51:03;4.70;;;4.20;;
32824;SDS011;51060;42.640;24.356;2023-03-13T08:53:32;5.03;;;4.17;;
32824;SDS011;51060;42.640;24.356;2023-03-13T08:55:58;4.67;;;4.00;;
32824;SDS011;51060;42.640;24.356;2023-03-13T08:58:24;4.50;;;4.10;;
32824;SDS011;51060;42.640;24.356;2023-03-13T09:00:50;4.10;;;3.70;;
32824;SDS011;51060;42.640;24.356;2023-03-13T09:03:15;4.40;;;4.00;;
32824;SDS011;51060;42.640;24.356;2023-03-13T09:05:42;4.37;;;3.97;;
32824;SDS011;51060;42.640;24.356;2023-03-13T09:08:07;4.43;;;3.90;;
32824;SDS011;51060;42.640;24.356;2023-03-13T09:10:33;3.77;;;3.47;;
32824;SDS011;51060;42.640;24.356;2023-03-13T09:12:59;4.87;;;3.90;;
32824;SDS011;51060;42.640;24.356;2023-03-13T09:15:25;6.60;;;5.87;;
32824;SDS011;51060;42.640;24.356;2023-03-13T09:17:50;7.00;;;6.03;;
32824;SDS011;51060;42.640;24.356;2023-03-13T09:20:16;4.67;;;4.27;;
32824;SDS011;51060;42.640;24.356;2023-03-13T09:22:43;5.17;;;4.67;;
32824;SDS011;51060;42.640;24.356;2023-03-13T09:25:09;11.97;;;8.43;;
32824;SDS011;51060;42.640;24.356;2023-03-13T09:27:35;5.23;;;4.23;;
32824;SDS011;51060;42.640;24.356;2023-03-13T09:30:01;5.23;;;4.33;;
32824;SDS011;51060;42.640;24.356;2023-03-13T09:32:26;7.70;;;6.17;;
32824;SDS011;51060;42.640;24.356;2023-03-13T09:34:52;5.30;;;4.50;;
32824;SDS011;51060;42.640;24.356;2023-03-13T09:37:18;3.40;;;3.10;;
32824;SDS011;51060;42.640;24.356;2023-03-13T09:39:43;6.60;;;4.80;;
32824;SDS011;51060;42.640;24.356;2023-03-13T09:42:23;3.17;;;2.87;;
32824;SDS011;51060;42.640;24.356;2023-03-13T09:45:17;7.97;;;5.70;;
32824;SDS011;51060;42.640;24.356;2023-03-13T09:47:49;3.87;;;3.27;;
32824;SDS011;51060;42.640;24.356;2023-03-13T09:50:18;4.33;;;3.50;;
32824;SDS011;51060;42.640;24.356;2023-03-13T09:52:47;4.00;;;3.00;;
32824;SDS011;51060;42.640;24.356;2023-03-13T09:55:16;5.30;;;4.80;;
32824;SDS011;51060;42.640;24.356;2023-03-13T09:57:49;5.83;;;4.90;;
32824;SDS011;51060;42.640;24.356;2023-03-13T10:00:22;5.13;;;4.70;;
32824;SDS011;51060;42.640;24.356;2023-03-13T10:03:02;5.00;;;4.00;;
32824;SDS011;51060;42.640;24.356;2023-03-13T10:05:32;4.33;;;3.53;;
32824;SDS011;51060;42.640;24.356;2023-03-13T10:08:08;5.17;;;4.67;;
32824;SDS011;51060;42.640;24.356;2023-03-13T10:13:22;5.17;;;4.67;;
32824;SDS011;51060;42.640;24.356;2023-03-13T10:15:56;4.00;;;3.60;;
32824;SDS011;51060;42.640;24.356;2023-03-13T10:18:24;5.50;;;3.77;;
32824;SDS011;51060;42.640;24.356;2023-03-13T10:20:55;4.60;;;3.53;;
32824;SDS011;51060;42.640;24.356;2023-03-13T10:26:01;9.80;;;7.00;;
32824;SDS011;51060;42.640;24.356;2023-03-13T10:28:27;7.43;;;6.13;;
32824;SDS011;51060;42.640;24.356;2023-03-13T10:33:33;4.97;;;3.30;;
32824;SDS011;51060;42.640;24.356;2023-03-13T10:36:09;6.63;;;5.77;;
32824;SDS011;51060;42.640;24.356;2023-03-13T10:39:11;6.47;;;4.80;;
32824;SDS011;51060;42.640;24.356;2023-03-13T10:41:28;8.13;;;6.23;;
32824;SDS011;51060;42.640;24.356;2023-03-13T10:43:59;7.27;;;5.60;;
32824;SDS011;51060;42.640;24.356;2023-03-13T10:46:30;10.23;;;7.70;;
32824;SDS011;51060;42.640;24.356;2023-03-13T10:49:01;11.13;;;9.07;;
32824;SDS011;51060;42.640;24.356;2023-03-13T10:51:30;26.27;;;20.73;;
32824;SDS011;51060;42.640;24.356;2023-03-13T10:54:00;16.70;;;13.77;;
32824;SDS011;51060;42.640;24.356;2023-03-13T10:56:30;15.43;;;10.00;;
32824;SDS011;51060;42.640;24.356;2023-03-13T10:58:55;17.80;;;13.63;;
32824;SDS011;51060;42.640;24.356;2023-03-13T11:01:23;14.83;;;11.00;;
32824;SDS011;51060;42.640;24.356;2023-03-13T11:03:53;6.97;;;6.03;;
32824;SDS011;51060;42.640;24.356;2023-03-13T11:06:31;4.43;;;4.03;;
32824;SDS011;51060;42.640;24.356;2023-03-13T11:14:12;5.70;;;5.13;;
32824;SDS011;51060;42.640;24.356;2023-03-13T11:16:45;8.30;;;6.90;;
32824;SDS011;51060;42.640;24.356;2023-03-13T11:22:06;5.60;;;4.90;;
32824;SDS011;51060;42.640;24.356;2023-03-13T11:24:45;5.20;;;4.20;;
32824;SDS011;51060;42.640;24.356;2023-03-13T11:27:23;11.97;;;10.67;;
32824;SDS011;51060;42.640;24.356;2023-03-13T11:33:01;4.60;;;3.70;;
32824;SDS011;51060;42.640;24.356;2023-03-13T11:57:15;8.37;;;4.50;;
32824;SDS011;51060;42.640;24.356;2023-03-13T12:02:38;3.93;;;3.40;;
32824;SDS011;51060;42.640;24.356;2023-03-13T12:05:07;6.03;;;4.87;;
32824;SDS011;51060;42.640;24.356;2023-03-13T12:07:36;4.07;;;3.33;;
32824;SDS011;51060;42.640;24.356;2023-03-13T12:10:08;4.70;;;4.13;;
32824;SDS011;51060;42.640;24.356;2023-03-13T12:15:21;5.10;;;4.23;;
32824;SDS011;51060;42.640;24.356;2023-03-13T12:17:51;6.23;;;4.43;;
32824;SDS011;51060;42.640;24.356;2023-03-13T12:20:23;4.87;;;3.80;;
32824;SDS011;51060;42.640;24.356;2023-03-13T12:22:55;5.13;;;3.80;;
32824;SDS011;51060;42.640;24.356;2023-03-13T12:28:02;3.27;;;2.93;;
32824;SDS011;51060;42.640;24.356;2023-03-13T12:30:39;5.80;;;3.63;;
32824;SDS011;51060;42.640;24.356;2023-03-13T12:35:52;5.70;;;4.90;;
32824;SDS011;51060;42.640;24.356;2023-03-13T12:38:27;8.50;;;5.07;;
32824;SDS011;51060;42.640;24.356;2023-03-13T12:41:07;11.80;;;7.43;;
32824;SDS011;51060;42.640;24.356;2023-03-13T12:43:38;10.30;;;6.40;;
32824;SDS011;51060;42.640;24.356;2023-03-13T12:57:14;5.97;;;4.40;;
32824;SDS011;51060;42.640;24.356;2023-03-13T12:59:46;4.17;;;2.50;;
32824;SDS011;51060;42.640;24.356;2023-03-13T13:02:24;6.10;;;4.23;;
32824;SDS011;51060;42.640;24.356;2023-03-13T13:04:52;6.37;;;5.17;;
32824;SDS011;51060;42.640;24.356;2023-03-13T13:12:39;6.17;;;5.30;;
32824;SDS011;51060;42.640;24.356;2023-03-13T13:15:24;5.73;;;4.00;;
32824;SDS011;51060;42.640;24.356;2023-03-13T13:17:56;4.10;;;3.43;;
32824;SDS011;51060;42.640;24.356;2023-03-13T13:22:52;10.37;;;6.53;;
32824;SDS011;51060;42.640;24.356;2023-03-13T13:30:43;5.53;;;4.53;;
32824;SDS011;51060;42.640;24.356;2023-03-13T13:35:47;5.47;;;4.37;;
32824;SDS011;51060;42.640;24.356;2023-03-13T13:38:32;4.85;;;3.25;;
32824;SDS011;51060;42.640;24.356;2023-03-13T13:41:20;6.77;;;4.57;;
32824;SDS011;51060;42.640;24.356;2023-03-13T13:44:13;44.25;;;23.90;;
32824;SDS011;51060;42.640;24.356;2023-03-13T13:46:45;12.52;;;7.85;;
32824;SDS011;51060;42.640;24.356;2023-03-13T13:49:15;10.63;;;7.33;;
32824;SDS011;51060;42.640;24.356;2023-03-13T13:57:19;4.60;;;4.13;;
32824;SDS011;51060;42.640;24.356;2023-03-13T13:59:48;5.10;;;3.63;;
32824;SDS011;51060;42.640;24.356;2023-03-13T14:02:24;16.80;;;11.13;;
32824;SDS011;51060;42.640;24.356;2023-03-13T14:05:04;7.70;;;5.20;;
32824;SDS011;51060;42.640;24.356;2023-03-13T14:15:08;4.20;;;3.80;;
32824;SDS011;51060;42.640;24.356;2023-03-13T14:17:41;5.97;;;3.33;;
32824;SDS011;51060;42.640;24.356;2023-03-13T14:20:28;5.17;;;4.53;;
32824;SDS011;51060;42.640;24.356;2023-03-13T14:23:03;6.72;;;4.40;;
32824;SDS011;51060;42.640;24.356;2023-03-13T14:25:47;13.25;;;10.52;;
32824;SDS011;51060;42.640;24.356;2023-03-13T14:28:24;7.53;;;4.80;;
32824;SDS011;51060;42.640;24.356;2023-03-13T14:30:52;6.03;;;5.40;;
32824;SDS011;51060;42.640;24.356;2023-03-13T14:33:20;4.65;;;3.72;;
32824;SDS011;51060;42.640;24.356;2023-03-13T14:35:46;6.00;;;4.53;;
32824;SDS011;51060;42.640;24.356;2023-03-13T14:38:16;6.63;;;5.63;;
32824;SDS011;51060;42.640;24.356;2023-03-13T14:40:43;6.30;;;5.32;;
32824;SDS011;51060;42.640;24.356;2023-03-13T14:45:46;10.75;;;7.47;;
32824;SDS011;51060;42.640;24.356;2023-03-13T14:48:16;13.23;;;9.55;;
32824;SDS011;51060;42.640;24.356;2023-03-13T14:50:44;7.95;;;6.50;;
32824;SDS011;51060;42.640;24.356;2023-03-13T14:53:11;8.40;;;5.30;;
32824;SDS011;51060;42.640;24.356;2023-03-13T14:55:40;5.72;;;5.20;;
32824;SDS011;51060;42.640;24.356;2023-03-13T15:00:44;7.40;;;5.22;;
32824;SDS011;51060;42.640;24.356;2023-03-13T15:03:32;16.42;;;12.05;;
32824;SDS011;51060;42.640;24.356;2023-03-13T15:06:13;15.73;;;11.70;;
32824;SDS011;51060;42.640;24.356;2023-03-13T15:08:41;10.43;;;8.32;;
32824;SDS011;51060;42.640;24.356;2023-03-13T15:11:42;10.80;;;8.23;;
32824;SDS011;51060;42.640;24.356;2023-03-13T15:14:01;12.25;;;8.98;;
32824;SDS011;51060;42.640;24.356;2023-03-13T15:16:28;13.07;;;8.68;;
32824;SDS011;51060;42.640;24.356;2023-03-13T15:18:53;12.48;;;7.97;;
32824;SDS011;51060;42.640;24.356;2023-03-13T15:21:27;7.55;;;6.05;;
32824;SDS011;51060;42.640;24.356;2023-03-13T15:26:24;14.00;;;9.10;;
32824;SDS011;51060;42.640;24.356;2023-03-13T15:28:50;18.27;;;13.17;;
32824;SDS011;51060;42.640;24.356;2023-03-13T15:31:16;18.73;;;13.13;;
32824;SDS011;51060;42.640;24.356;2023-03-13T15:33:42;11.40;;;8.27;;
32824;SDS011;51060;42.640;24.356;2023-03-13T15:36:09;14.53;;;10.60;;
32824;SDS011;51060;42.640;24.356;2023-03-13T15:38:35;11.33;;;9.07;;
32824;SDS011;51060;42.640;24.356;2023-03-13T15:41:01;10.43;;;8.30;;
32824;SDS011;51060;42.640;24.356;2023-03-13T15:43:27;15.87;;;12.13;;
32824;SDS011;51060;42.640;24.356;2023-03-13T15:45:52;20.07;;;14.70;;
32824;SDS011;51060;42.640;24.356;2023-03-13T15:48:22;14.73;;;10.93;;
32824;SDS011;51060;42.640;24.356;2023-03-13T15:50:49;9.50;;;7.60;;
32824;SDS011;51060;42.640;24.356;2023-03-13T15:53:20;9.17;;;6.90;;
32824;SDS011;51060;42.640;24.356;2023-03-13T15:55:48;10.20;;;7.90;;
32824;SDS011;51060;42.640;24.356;2023-03-13T15:58:15;11.30;;;8.60;;
32824;SDS011;51060;42.640;24.356;2023-03-13T16:00:41;16.13;;;12.00;;
32824;SDS011;51060;42.640;24.356;2023-03-13T16:03:14;25.00;;;19.90;;
32824;SDS011;51060;42.640;24.356;2023-03-13T16:05:43;54.57;;;42.83;;
32824;SDS011;51060;42.640;24.356;2023-03-13T16:08:11;58.37;;;43.90;;
32824;SDS011;51060;42.640;24.356;2023-03-13T16:10:39;42.73;;;32.53;;
32824;SDS011;51060;42.640;24.356;2023-03-13T16:13:04;43.43;;;34.23;;
32824;SDS011;51060;42.640;24.356;2023-03-13T16:15:30;59.20;;;46.87;;
32824;SDS011;51060;42.640;24.356;2023-03-13T16:17:56;46.97;;;36.90;;